Buckland Airport
PABL : rendu visible

Aérodrome :











RETROUVEZ-NOUS SUR...

 
LOGIN :

S'inscrire | Disclaimer

   EN    FR    IT 

 









Légende :    VFR   VFR Marginal   IFR   IFR Intensif   IFR Très Intensif
Visi : 
Plafond : 
>= 8 km
>= 3000ft
5 à 8 km
1000 à 3000 ft
1500m à 5 km
500 à 1000 ft
800 à 1500m
200 à 500 ft
< 800m
< 200 ft
Symboles :   Orages  Brouillard  Fortes neiges  Fortes précipitations  Vent > 20 kt






- Altitude de l'aérodrome : 31 ft
- Code IATA : BVK


PABL - Buckland

DERNIER METAR :
  • 072256Z AUTO 00000KT 10SM OVC032 M14/M18 A3008 RMK AO2 SLP190 T11441178 FZRANO

METARs EXPIRÉS :
  • 072156Z AUTO 00000KT 10SM OVC030 M16/M19 A3009 RMK AO2 SNB11E26 SLP191 P0000 T11561189 FZRANO
  • 072056Z AUTO 00000KT 10SM OVC030 M17/M20 A3009 RMK AO2 SNE45 SLP193 P0000 60000 T11671200 51002 FZRANO

TAF N/A



MET'MAP, la Météo Aéronautique d'un coup d'oeil ! - Copyright ORBIFLY Décembre 2007 - Disclaimer

ORBIFLY MET'MAP TEAM :

Programmation & Développement : Alexandra Zaïnal
Sur une idée originale de : Baudouin d'Aumeries
Assistance à la programmation : Marc-Olivier Méhu
Soutien technique & logistique : Manuel Goepfert

Contact : metmap@orbifly.com




SOURCES & CREDITS :

   NOAA       Earth
Advisory